• Join FlightAware (Why Join?)
  • Login
  • US Flag 
10:30AM EDT


 

Airport Tracker/Info


-or-


 

Live Flight TrackerFlight Track Log ✈ ASQ6115 ✈ 22-Apr-2013 ✈ KMSN - KORD

Flight Track Log - Related Links

Times and Time Zones

All times are in EDT time to prevent confusion due to time zone crossing. See the ASQ6115 flight status page for this flight to view local times or setup timezone preferences in your user account.

Time Position Orientation Groundspeed Altitude Reporting Facility
EDT Latitude Longitude Course Direction KTS MPH feet Rate Location/Type
08:23PM 43.0183 -89.3022 163° South 205 236 6,700  Level Chicago Center
08:24PM 42.9392 -89.2681 162° South 249 287 10,000 1,980 Climbing Chicago Center
08:25PM 42.8594 -89.2342 163° South 295 339 10,800 1,140 Climbing Chicago Center
08:26PM 42.8337 -89.2057 166° South  Level FlightAware Approximate
08:26PM 42.7656 -89.1997 165° South 344 396 12,400  Level Chicago Center
08:27PM 42.7589 -89.1856 170° South  Level FlightAware Approximate
08:27PM 42.6783 -89.1961 178° South 315 362 13,000  Level Chicago Center
08:28PM 42.6006 -89.1917 178° South 283 326 13,000 -540 Level Chicago Center
08:29PM 42.5222 -89.1875 178° South 281 323 12,000 -1,020 Descending Chicago Center
08:30PM 42.4342 -89.1753 174° South 272 313 11,000 -540 Descending Chicago Center
08:31PM 42.3875 -89.0892 126° Southeast 294 338 11,000  Level Chicago Center
08:32PM 42.4178 -88.9814 69° East 310 357 11,000 -360 Level Chicago Center
08:33PM 42.4522 -88.8758 66° East 309 356 10,300 -840 Descending Chicago Center
08:34PM 42.4647 -88.7681 81° East 306 352 9,300 -660 Descending Chicago Center
08:35PM 42.4317 -88.6706 115° Southeast 288 331 9,000 -180 Descending Chicago Center
08:36PM 42.3939 -88.5606 115° Southeast 280 322 9,000  Level Chicago Center
08:37PM 42.3611 -88.4631 114° Southeast 283 326 9,000 -360 Level Chicago Center
08:38PM 42.3308 -88.3719 114° Southeast 284 327 8,300 -780 Descending Chicago Center
08:39PM 42.2975 -88.2786 116° Southeast 280 322 7,400 -660 Descending Chicago Center
08:40PM 42.2389 -88.2164 142° Southeast 230 265 7,000 -720 Descending Chicago Center
08:41PM 42.1944 -88.1642 139° Southeast 217 250 6,000 -1,020 Descending Chicago Center
08:42PM 42.1558 -88.1217 141° Southeast 191 220 5,000 -960 Descending Chicago Center
08:43PM 42.1217 -88.0811 139° Southeast 169 194 4,100 -900 Descending Chicago Center